Time;durP1;ratioP1;P1;durP2;ratioP2;P2;SDS_P1;SDS_P2;PMS_P1;PMS_P2;Temp;Humidity;BMP_temperature;BMP_pressure;BME280_temperature;BME280_humidity;BME280_pressure;Samples;Min_cycle;Max_cycle;Signal;HPM_P1;HPM_P2
2023/08/17 00:01:51;;;;;;;5.32;2.58;;;;;;;;;;5016853;28;25065;-74
2023/08/17 00:04:17;;;;;;;9.75;2.60;;;;;;;;;;5018502;28;25101;-76
2023/08/17 00:06:43;;;;;;;5.38;2.38;;;;;;;;;;5011375;28;25087;-75
2023/08/17 00:09:09;;;;;;;7.18;2.65;;;;;;;;;;5014722;28;25159;-74
2023/08/17 00:11:36;;;;;;;7.72;2.72;;;;;;;;;;5017078;28;25045;-76
2023/08/17 00:14:02;;;;;;;6.97;3.03;;;;;;;;;;5018441;28;25071;-76
2023/08/17 00:16:28;;;;;;;6.82;2.53;;;;;;;;;;5011511;28;25075;-74
2023/08/17 00:18:54;;;;;;;9.10;2.50;;;;;;;;;;5012025;28;25137;-75
2023/08/17 00:21:20;;;;;;;5.60;2.72;;;;;;;;;;5000182;28;25088;-75
2023/08/17 00:23:45;;;;;;;7.90;2.92;;;;;;;;;;5016230;28;25139;-75
2023/08/17 00:26:11;;;;;;;5.35;2.90;;;;;;;;;;5020916;28;25098;-72
2023/08/17 00:28:38;;;;;;;6.25;2.85;;;;;;;;;;5013333;28;25071;-75
2023/08/17 00:31:03;;;;;;;9.23;2.85;;;;;;;;;;5013033;28;25074;-73
2023/08/17 00:33:29;;;;;;;3.00;2.13;;;;;;;;;;5013568;28;25107;-74
2023/08/17 00:35:55;;;;;;;4.20;2.42;;;;;;;;;;5010436;28;25093;-75
2023/08/17 00:38:21;;;;;;;3.95;2.50;;;;;;;;;;5007601;28;25096;-75
2023/08/17 00:40:48;;;;;;;4.93;2.53;;;;;;;;;;5001186;28;25064;-75
2023/08/17 00:43:14;;;;;;;5.03;2.92;;;;;;;;;;5005242;28;25101;-75
2023/08/17 00:45:40;;;;;;;2.38;2.08;;;;;;;;;;5007809;28;25065;-75
2023/08/17 00:48:07;;;;;;;5.25;2.42;;;;;;;;;;5010306;28;25103;-73
2023/08/17 00:50:34;;;;;;;4.97;2.22;;;;;;;;;;5006479;28;25106;-74
2023/08/17 00:53:00;;;;;;;6.95;2.35;;;;;;;;;;5008714;28;25199;-73
2023/08/17 00:55:26;;;;;;;3.00;1.85;;;;;;;;;;5013468;28;25110;-75
2023/08/17 00:57:53;;;;;;;3.85;2.10;;;;;;;;;;5016876;28;25076;-74
2023/08/17 01:00:20;;;;;;;3.15;2.58;;;;;;;;;;5004026;28;25109;-73
2023/08/17 01:02:47;;;;;;;4.72;2.33;;;;;;;;;;5011516;28;25115;-73
2023/08/17 01:05:13;;;;;;;5.70;2.60;;;;;;;;;;5012397;28;25070;-73
2023/08/17 01:07:39;;;;;;;3.28;2.25;;;;;;;;;;5017351;28;25133;-75
2023/08/17 01:10:06;;;;;;;2.85;2.53;;;;;;;;;;5012605;28;25062;-71
2023/08/17 01:12:32;;;;;;;5.00;2.00;;;;;;;;;;5005099;28;25088;-76
2023/08/17 01:15:01;;;;;;;6.75;2.13;;;;;;;;;;5016466;28;25131;-75
2023/08/17 01:17:32;;;;;;;3.55;2.22;;;;;;;;;;5013822;28;25124;-76
2023/08/17 01:19:59;;;;;;;5.88;2.33;;;;;;;;;;5017543;28;25070;-75
2023/08/17 01:22:26;;;;;;;5.65;2.47;;;;;;;;;;5012651;28;25069;-75
2023/08/17 01:24:58;;;;;;;5.60;2.78;;;;;;;;;;5013697;28;25066;-73
2023/08/17 01:27:24;;;;;;;6.55;2.35;;;;;;;;;;5015194;28;25104;-76
2023/08/17 01:29:51;;;;;;;8.95;2.70;;;;;;;;;;5015077;28;25084;-76
2023/08/17 01:32:22;;;;;;;4.88;2.38;;;;;;;;;;5015832;28;25117;-75
2023/08/17 01:34:50;;;;;;;7.07;2.78;;;;;;;;;;5004111;28;25055;-75
2023/08/17 01:37:18;;;;;;;8.18;2.90;;;;;;;;;;5005146;28;25060;-75
2023/08/17 01:39:45;;;;;;;5.97;2.45;;;;;;;;;;5002253;28;25066;-75
2023/08/17 01:42:12;;;;;;;6.43;2.50;;;;;;;;;;5023194;28;25058;-76
2023/08/17 01:44:39;;;;;;;3.53;2.17;;;;;;;;;;5026537;28;25073;-73
2023/08/17 01:47:05;;;;;;;2.85;2.13;;;;;;;;;;5015563;28;25058;-72
2023/08/17 01:49:31;;;;;;;5.82;2.40;;;;;;;;;;5019969;28;25083;-73
2023/08/17 01:51:57;;;;;;;8.40;3.20;;;;;;;;;;5026989;28;25069;-75
2023/08/17 01:54:23;;;;;;;13.27;2.95;;;;;;;;;;5029448;28;25063;-74
2023/08/17 01:56:49;;;;;;;3.92;2.33;;;;;;;;;;5036025;28;25070;-74
2023/08/17 01:59:15;;;;;;;4.53;1.88;;;;;;;;;;5026604;28;25101;-76
2023/08/17 02:01:41;;;;;;;7.88;2.10;;;;;;;;;;5033763;28;25078;-78
2023/08/17 02:04:07;;;;;;;4.97;2.53;;;;;;;;;;5028673;28;25088;-74
2023/08/17 02:06:33;;;;;;;5.75;2.30;;;;;;;;;;5024037;28;25108;-76
2023/08/17 02:08:59;;;;;;;4.65;2.65;;;;;;;;;;5018740;28;25064;-75
2023/08/17 02:11:26;;;;;;;5.32;3.10;;;;;;;;;;5016643;28;25083;-75
2023/08/17 02:13:52;;;;;;;4.35;2.55;;;;;;;;;;5010657;28;25139;-74
2023/08/17 02:16:18;;;;;;;3.60;2.30;;;;;;;;;;5017695;28;25105;-76
2023/08/17 02:18:44;;;;;;;5.35;2.80;;;;;;;;;;5018364;28;25121;-74
2023/08/17 02:21:10;;;;;;;6.28;2.55;;;;;;;;;;5011646;28;25099;-76
2023/08/17 02:23:36;;;;;;;6.47;2.33;;;;;;;;;;5020297;28;25061;-76
2023/08/17 02:26:02;;;;;;;5.85;2.67;;;;;;;;;;5014587;28;25108;-75
2023/08/17 02:28:28;;;;;;;6.65;2.53;;;;;;;;;;5010914;28;25072;-75
2023/08/17 02:30:58;;;;;;;4.55;2.60;;;;;;;;;;5010482;28;25144;-76
2023/08/17 02:33:24;;;;;;;7.93;2.75;;;;;;;;;;5011381;28;25055;-75
2023/08/17 02:35:51;;;;;;;5.55;2.97;;;;;;;;;;5011900;28;25061;-76
2023/08/17 02:38:17;;;;;;;4.82;2.78;;;;;;;;;;5018921;28;25081;-77
2023/08/17 02:40:43;;;;;;;4.30;2.42;;;;;;;;;;5027572;28;25077;-73
2023/08/17 02:43:09;;;;;;;8.63;2.50;;;;;;;;;;5021632;28;25067;-76
2023/08/17 02:45:35;;;;;;;4.78;2.40;;;;;;;;;;5018190;28;25078;-75
2023/08/17 02:48:01;;;;;;;7.05;2.50;;;;;;;;;;5008616;28;25108;-74
2023/08/17 02:50:27;;;;;;;4.85;2.83;;;;;;;;;;5016638;28;25083;-73
2023/08/17 02:52:53;;;;;;;6.72;2.30;;;;;;;;;;5025380;28;25091;-76
2023/08/17 02:55:19;;;;;;;6.60;2.70;;;;;;;;;;5027038;28;25083;-72
2023/08/17 02:57:45;;;;;;;7.75;2.83;;;;;;;;;;5012956;28;25130;-75
2023/08/17 03:00:11;;;;;;;4.72;2.25;;;;;;;;;;5019082;28;25111;-73
2023/08/17 03:02:37;;;;;;;4.75;2.15;;;;;;;;;;5021748;28;25057;-73
2023/08/17 03:05:03;;;;;;;2.22;2.03;;;;;;;;;;5019986;28;25062;-75
2023/08/17 03:07:29;;;;;;;4.13;2.17;;;;;;;;;;5014839;28;25094;-74
2023/08/17 03:09:55;;;;;;;8.98;2.97;;;;;;;;;;5023880;28;25077;-74
2023/08/17 03:12:21;;;;;;;4.07;2.63;;;;;;;;;;5008627;28;25159;-75
2023/08/17 03:14:47;;;;;;;5.18;2.92;;;;;;;;;;5014732;28;25079;-73
2023/08/17 03:17:13;;;;;;;5.70;3.03;;;;;;;;;;5014115;28;25106;-76
2023/08/17 03:19:39;;;;;;;4.55;2.80;;;;;;;;;;5001661;28;25073;-74
2023/08/17 03:22:05;;;;;;;5.70;2.72;;;;;;;;;;5015169;28;25275;-73
2023/08/17 03:24:31;;;;;;;7.28;2.80;;;;;;;;;;5015980;28;25082;-76
2023/08/17 03:26:57;;;;;;;8.77;2.55;;;;;;;;;;5011414;28;25067;-74
2023/08/17 03:29:23;;;;;;;6.57;2.85;;;;;;;;;;5020334;28;25067;-74
2023/08/17 03:31:49;;;;;;;7.70;3.05;;;;;;;;;;5009826;28;25083;-75
2023/08/17 03:34:28;;;;;;;6.55;2.90;;;;;;;;;;5014566;28;25054;-74
2023/08/17 03:36:54;;;;;;;9.02;3.28;;;;;;;;;;5012302;28;25135;-75
2023/08/17 03:39:20;;;;;;;8.00;3.40;;;;;;;;;;5010222;28;25072;-76
2023/08/17 03:41:46;;;;;;;6.97;3.20;;;;;;;;;;5005112;28;25177;-76
2023/08/17 03:44:13;;;;;;;7.30;3.25;;;;;;;;;;5008687;28;25067;-76
2023/08/17 03:46:39;;;;;;;7.63;3.05;;;;;;;;;;5007962;28;25076;-77
2023/08/17 03:49:05;;;;;;;7.85;2.80;;;;;;;;;;5019612;28;25132;-75
2023/08/17 03:51:31;;;;;;;5.07;2.67;;;;;;;;;;5023828;28;25055;-75
2023/08/17 03:53:57;;;;;;;6.78;2.95;;;;;;;;;;5022306;28;25105;-76
2023/08/17 03:56:23;;;;;;;5.85;3.03;;;;;;;;;;5025513;28;25059;-74
2023/08/17 03:58:50;;;;;;;8.73;3.20;;;;;;;;;;5028516;28;25095;-75
2023/08/17 04:01:16;;;;;;;10.75;3.15;;;;;;;;;;5009546;28;25129;-74
2023/08/17 04:03:42;;;;;;;6.50;3.10;;;;;;;;;;5012310;28;25136;-72
2023/08/17 04:06:10;;;;;;;6.38;3.28;;;;;;;;;;5017442;28;25086;-75
2023/08/17 04:08:37;;;;;;;8.48;3.60;;;;;;;;;;5020559;28;25062;-77
2023/08/17 04:11:03;;;;;;;11.35;3.92;;;;;;;;;;5012873;28;25058;-76
2023/08/17 04:13:29;;;;;;;8.85;3.10;;;;;;;;;;5004463;28;25080;-73
2023/08/17 04:15:55;;;;;;;10.63;3.67;;;;;;;;;;4998514;28;25078;-75
2023/08/17 04:18:21;;;;;;;11.00;3.38;;;;;;;;;;5008819;28;25064;-75
2023/08/17 04:20:47;;;;;;;8.73;4.35;;;;;;;;;;5014007;28;25085;-75
2023/08/17 04:23:13;;;;;;;9.93;3.88;;;;;;;;;;4999491;28;25072;-75
2023/08/17 04:25:39;;;;;;;10.45;4.07;;;;;;;;;;5008015;28;25062;-76
2023/08/17 04:28:05;;;;;;;8.25;3.70;;;;;;;;;;5016821;28;25090;-74
2023/08/17 04:30:31;;;;;;;6.50;3.45;;;;;;;;;;5010595;28;25074;-75
2023/08/17 04:32:57;;;;;;;8.40;3.55;;;;;;;;;;5021128;28;25087;-75
2023/08/17 04:35:23;;;;;;;6.35;3.15;;;;;;;;;;5018402;28;25151;-76
2023/08/17 04:37:49;;;;;;;5.00;3.60;;;;;;;;;;5002545;28;25069;-77
2023/08/17 04:40:15;;;;;;;9.55;3.55;;;;;;;;;;5018350;28;25132;-76
2023/08/17 04:42:41;;;;;;;6.60;3.00;;;;;;;;;;5008470;28;25057;-79
2023/08/17 04:45:09;;;;;;;9.48;3.72;;;;;;;;;;5006796;28;25058;-77
2023/08/17 04:47:35;;;;;;;9.82;3.65;;;;;;;;;;5006096;28;25054;-77
2023/08/17 04:50:01;;;;;;;10.90;3.83;;;;;;;;;;5004531;28;25125;-76
2023/08/17 04:52:27;;;;;;;6.07;3.33;;;;;;;;;;5007744;28;25143;-74
2023/08/17 04:54:53;;;;;;;14.70;3.83;;;;;;;;;;5013446;28;25101;-76
2023/08/17 04:57:19;;;;;;;8.82;3.45;;;;;;;;;;4998767;28;25079;-75
2023/08/17 04:59:45;;;;;;;9.88;3.30;;;;;;;;;;5008826;28;25106;-75
2023/08/17 05:02:11;;;;;;;7.55;3.05;;;;;;;;;;5006579;28;25112;-78
2023/08/17 05:04:38;;;;;;;7.20;2.80;;;;;;;;;;5009715;28;25054;-76
2023/08/17 05:07:04;;;;;;;7.47;2.95;;;;;;;;;;5011829;28;25062;-75
2023/08/17 05:09:30;;;;;;;5.95;3.13;;;;;;;;;;5020391;28;25130;-78
2023/08/17 05:11:56;;;;;;;7.82;2.92;;;;;;;;;;5020644;28;25059;-76
2023/08/17 05:14:22;;;;;;;8.80;3.40;;;;;;;;;;5002846;28;25056;-77
2023/08/17 05:16:48;;;;;;;7.60;2.75;;;;;;;;;;5020733;28;25445;-74
2023/08/17 05:19:14;;;;;;;3.72;2.83;;;;;;;;;;5015815;28;25086;-77
2023/08/17 05:21:40;;;;;;;9.23;2.97;;;;;;;;;;5020844;28;25082;-75
2023/08/17 05:24:06;;;;;;;7.60;2.90;;;;;;;;;;5000062;28;25131;-76
2023/08/17 05:26:32;;;;;;;7.70;3.05;;;;;;;;;;5004037;28;25099;-76
2023/08/17 05:28:58;;;;;;;7.85;3.28;;;;;;;;;;5002806;28;25098;-78
2023/08/17 05:31:24;;;;;;;9.00;2.70;;;;;;;;;;5007155;28;25072;-76
2023/08/17 05:33:50;;;;;;;6.97;2.90;;;;;;;;;;5007825;28;25079;-78
2023/08/17 05:36:16;;;;;;;10.57;3.00;;;;;;;;;;5006315;28;25126;-74
2023/08/17 05:38:42;;;;;;;8.32;2.95;;;;;;;;;;4999400;28;25077;-75
2023/08/17 05:41:08;;;;;;;5.30;2.58;;;;;;;;;;5000521;28;25065;-74
2023/08/17 05:43:34;;;;;;;7.28;3.20;;;;;;;;;;5002157;28;25154;-77
2023/08/17 05:46:00;;;;;;;6.50;2.90;;;;;;;;;;5013494;28;25148;-76
2023/08/17 05:48:26;;;;;;;6.88;2.85;;;;;;;;;;5004179;28;25142;-76
2023/08/17 05:50:52;;;;;;;5.88;2.78;;;;;;;;;;5005222;28;25068;-77
2023/08/17 05:53:18;;;;;;;9.77;2.95;;;;;;;;;;5011239;28;25169;-78
2023/08/17 05:55:44;;;;;;;12.63;3.35;;;;;;;;;;5000000;28;25088;-77
2023/08/17 05:58:10;;;;;;;6.40;3.05;;;;;;;;;;5005275;28;25058;-76
2023/08/17 06:00:37;;;;;;;8.32;3.40;;;;;;;;;;5011503;28;25062;-76
2023/08/17 06:03:03;;;;;;;6.15;3.28;;;;;;;;;;5009465;28;25055;-76
2023/08/17 06:05:30;;;;;;;8.57;2.78;;;;;;;;;;5026424;28;25083;-76
2023/08/17 06:07:56;;;;;;;6.82;2.90;;;;;;;;;;5025027;28;25101;-76
2023/08/17 06:10:25;;;;;;;3.70;2.60;;;;;;;;;;5012861;28;25155;-76
2023/08/17 06:12:52;;;;;;;5.32;2.90;;;;;;;;;;5006017;28;25166;-79
2023/08/17 06:15:18;;;;;;;3.83;2.80;;;;;;;;;;5003757;28;25128;-75
2023/08/17 06:17:44;;;;;;;8.30;2.83;;;;;;;;;;5002539;28;25151;-76
2023/08/17 06:20:11;;;;;;;4.70;2.50;;;;;;;;;;5011974;28;25054;-78
2023/08/17 06:22:37;;;;;;;8.15;3.03;;;;;;;;;;5011245;28;25053;-79
2023/08/17 06:25:04;;;;;;;7.93;3.20;;;;;;;;;;5008429;28;25056;-80
2023/08/17 06:27:31;;;;;;;8.10;2.90;;;;;;;;;;5009598;28;25048;-79
2023/08/17 06:29:56;;;;;;;7.22;2.50;;;;;;;;;;5001089;28;25134;-77
2023/08/17 06:32:23;;;;;;;4.82;2.33;;;;;;;;;;5018165;28;25068;-78
2023/08/17 06:34:49;;;;;;;6.38;2.78;;;;;;;;;;5028501;28;25065;-76
2023/08/17 06:37:15;;;;;;;10.02;2.60;;;;;;;;;;5017560;28;25079;-78
2023/08/17 06:39:41;;;;;;;6.15;2.60;;;;;;;;;;5011260;28;25073;-78
2023/08/17 06:42:07;;;;;;;4.55;2.35;;;;;;;;;;5000268;28;25072;-76
2023/08/17 06:44:33;;;;;;;5.78;2.20;;;;;;;;;;5005796;28;25075;-78
2023/08/17 06:46:59;;;;;;;6.38;2.70;;;;;;;;;;5008055;28;25127;-78
2023/08/17 06:49:28;;;;;;;5.93;2.78;;;;;;;;;;5005687;28;25109;-78
2023/08/17 06:51:54;;;;;;;8.32;2.80;;;;;;;;;;5012684;28;25093;-78
2023/08/17 06:54:20;;;;;;;8.48;2.70;;;;;;;;;;5012413;28;25103;-81
2023/08/17 06:56:46;;;;;;;4.40;2.40;;;;;;;;;;5006755;28;25064;-78
2023/08/17 06:59:12;;;;;;;7.90;2.55;;;;;;;;;;5010768;28;25103;-76
2023/08/17 07:01:38;;;;;;;4.03;2.58;;;;;;;;;;5021039;28;25099;-79
2023/08/17 07:04:04;;;;;;;6.72;2.72;;;;;;;;;;5015392;28;25107;-79
2023/08/17 07:06:30;;;;;;;7.32;2.80;;;;;;;;;;5017165;28;25075;-76
2023/08/17 07:08:56;;;;;;;10.75;2.80;;;;;;;;;;5011965;28;25143;-75
2023/08/17 07:11:22;;;;;;;5.80;2.38;;;;;;;;;;5010539;28;25101;-77
2023/08/17 07:13:48;;;;;;;6.47;2.85;;;;;;;;;;5016288;28;25165;-73
2023/08/17 07:16:14;;;;;;;11.02;2.80;;;;;;;;;;5024096;28;25065;-78
2023/08/17 07:18:40;;;;;;;8.38;2.38;;;;;;;;;;5019242;28;25063;-79
2023/08/17 07:21:06;;;;;;;6.13;2.83;;;;;;;;;;5008038;28;25145;-77
2023/08/17 07:23:32;;;;;;;9.13;2.30;;;;;;;;;;5004810;28;25062;-78
2023/08/17 07:25:58;;;;;;;6.47;2.55;;;;;;;;;;5011062;28;25073;-78
2023/08/17 07:28:24;;;;;;;6.35;2.30;;;;;;;;;;4998253;28;25084;-77
2023/08/17 07:30:50;;;;;;;3.65;2.42;;;;;;;;;;5020134;28;25066;-77
2023/08/17 07:33:16;;;;;;;7.93;3.00;;;;;;;;;;5004740;28;25069;-77
2023/08/17 07:35:42;;;;;;;6.20;2.75;;;;;;;;;;5008881;28;25109;-78
2023/08/17 07:38:08;;;;;;;3.83;2.38;;;;;;;;;;5014635;28;25086;-79
2023/08/17 07:40:34;;;;;;;3.08;2.15;;;;;;;;;;5008541;28;25071;-79
2023/08/17 07:43:01;;;;;;;3.72;2.30;;;;;;;;;;5005082;28;25106;-79
2023/08/17 07:45:27;;;;;;;7.93;2.53;;;;;;;;;;5003549;28;25054;-76
2023/08/17 07:47:53;;;;;;;3.28;2.08;;;;;;;;;;4997810;28;25115;-77
2023/08/17 07:50:21;;;;;;;8.98;2.55;;;;;;;;;;5009330;28;25117;-79
2023/08/17 07:52:47;;;;;;;9.30;3.10;;;;;;;;;;5013898;28;25039;-73
2023/08/17 07:55:13;;;;;;;7.10;3.25;;;;;;;;;;5015785;28;25094;-77
2023/08/17 07:57:39;;;;;;;5.57;2.42;;;;;;;;;;5003448;28;25075;-77
2023/08/17 08:00:05;;;;;;;13.80;3.35;;;;;;;;;;5014471;28;25148;-78
2023/08/17 08:02:31;;;;;;;5.40;2.38;;;;;;;;;;5002669;28;25145;-77
2023/08/17 08:04:57;;;;;;;6.30;3.15;;;;;;;;;;5011612;28;25059;-75
2023/08/17 08:07:23;;;;;;;4.72;2.60;;;;;;;;;;5020231;28;25078;-76
2023/08/17 08:09:49;;;;;;;5.05;2.72;;;;;;;;;;5005359;28;25150;-76
2023/08/17 08:12:15;;;;;;;6.88;2.83;;;;;;;;;;5019821;28;25119;-77
2023/08/17 08:14:40;;;;;;;6.15;3.00;;;;;;;;;;5002527;28;25194;-80
2023/08/17 08:17:06;;;;;;;7.25;2.80;;;;;;;;;;5002912;28;25093;-74
2023/08/17 08:19:32;;;;;;;7.82;3.25;;;;;;;;;;5006241;28;25065;-77
2023/08/17 08:21:59;;;;;;;10.02;3.45;;;;;;;;;;5010664;28;25077;-77
2023/08/17 08:24:25;;;;;;;9.77;3.05;;;;;;;;;;5015276;28;25130;-77
2023/08/17 08:26:53;;;;;;;9.40;3.33;;;;;;;;;;5005384;28;25053;-76
2023/08/17 08:29:18;;;;;;;7.57;3.42;;;;;;;;;;5002586;28;25090;-76
2023/08/17 08:31:44;;;;;;;6.13;3.42;;;;;;;;;;5008290;28;25059;-78
2023/08/17 08:34:10;;;;;;;5.53;3.65;;;;;;;;;;5001964;28;25104;-77
2023/08/17 08:36:36;;;;;;;7.57;3.10;;;;;;;;;;5008138;28;25070;-77
2023/08/17 08:39:02;;;;;;;7.03;3.55;;;;;;;;;;5001130;28;25063;-77
2023/08/17 08:41:30;;;;;;;12.27;3.58;;;;;;;;;;4998712;28;25105;-77
2023/08/17 08:43:56;;;;;;;8.50;3.08;;;;;;;;;;4998663;28;25136;-76
2023/08/17 08:46:24;;;;;;;6.70;3.50;;;;;;;;;;5018278;28;25148;-77
2023/08/17 08:48:52;;;;;;;9.80;3.97;;;;;;;;;;5005725;28;25060;-77
2023/08/17 08:51:23;;;;;;;13.77;4.45;;;;;;;;;;5005058;28;25075;-76
2023/08/17 08:53:53;;;;;;;8.40;3.47;;;;;;;;;;5010595;28;25073;-75
2023/08/17 08:56:21;;;;;;;9.98;4.00;;;;;;;;;;5017036;28;25020;-76
2023/08/17 08:58:47;;;;;;;8.27;3.92;;;;;;;;;;5013970;28;25091;-79
2023/08/17 09:01:13;;;;;;;9.02;3.55;;;;;;;;;;5012350;28;25081;-76
2023/08/17 09:03:39;;;;;;;8.35;2.83;;;;;;;;;;5017173;28;25091;-77
2023/08/17 09:06:06;;;;;;;6.43;3.63;;;;;;;;;;5030759;28;25095;-75
2023/08/17 09:08:32;;;;;;;16.08;4.18;;;;;;;;;;5037244;28;25052;-77
2023/08/17 09:10:58;;;;;;;8.63;3.72;;;;;;;;;;5029803;28;25059;-75
2023/08/17 09:13:24;;;;;;;8.43;3.78;;;;;;;;;;5016472;28;25070;-78
2023/08/17 09:15:50;;;;;;;7.63;3.80;;;;;;;;;;5004283;28;25106;-78
2023/08/17 09:18:16;;;;;;;7.32;3.85;;;;;;;;;;5006458;28;25052;-75
2023/08/17 09:20:44;;;;;;;6.50;3.47;;;;;;;;;;5023966;28;25059;-76
2023/08/17 09:23:13;;;;;;;5.85;3.40;;;;;;;;;;5019344;28;25077;-79
2023/08/17 09:25:40;;;;;;;6.53;3.25;;;;;;;;;;5010152;28;25100;-74
2023/08/17 09:28:14;;;;;;;8.05;3.72;;;;;;;;;;4999276;28;25105;-77
2023/08/17 09:30:57;;;;;;;6.38;2.88;;;;;;;;;;5005098;28;25074;-75
2023/08/17 09:33:24;;;;;;;7.30;3.28;;;;;;;;;;5009765;28;25068;-76
2023/08/17 09:35:50;;;;;;;9.73;3.22;;;;;;;;;;5011000;28;25107;-75
2023/08/17 09:38:16;;;;;;;5.85;3.25;;;;;;;;;;5029379;28;25052;-76
2023/08/17 09:40:43;;;;;;;8.88;3.78;;;;;;;;;;5018632;28;25092;-77
2023/08/17 09:43:09;;;;;;;6.75;4.13;;;;;;;;;;5027514;28;25080;-78
2023/08/17 09:45:36;;;;;;;5.45;2.95;;;;;;;;;;5036794;28;25061;-76
2023/08/17 09:48:02;;;;;;;6.47;2.92;;;;;;;;;;5018695;28;25106;-76
2023/08/17 09:50:28;;;;;;;8.00;3.50;;;;;;;;;;5012155;28;25066;-75
2023/08/17 09:52:54;;;;;;;8.48;4.45;;;;;;;;;;5006409;28;25141;-74
2023/08/17 09:55:23;;;;;;;7.60;3.47;;;;;;;;;;5009074;28;25058;-76
2023/08/17 09:57:52;;;;;;;11.30;3.22;;;;;;;;;;5010141;28;25075;-76
2023/08/17 10:00:20;;;;;;;9.25;3.50;;;;;;;;;;5005866;28;25087;-74
2023/08/17 10:02:49;;;;;;;6.80;3.30;;;;;;;;;;5004755;28;25047;-77
2023/08/17 10:05:17;;;;;;;8.98;3.15;;;;;;;;;;5005660;28;25082;-74
2023/08/17 10:07:44;;;;;;;5.32;3.05;;;;;;;;;;5000783;28;25079;-75
2023/08/17 10:10:10;;;;;;;5.95;2.92;;;;;;;;;;5015879;28;25074;-76
2023/08/17 10:12:46;;;;;;;6.63;2.83;;;;;;;;;;5003369;28;25075;-74
2023/08/17 10:15:13;;;;;;;6.00;3.28;;;;;;;;;;5005251;28;25094;-75
2023/08/17 10:17:43;;;;;;;5.88;3.70;;;;;;;;;;5016757;28;25070;-77
2023/08/17 10:20:09;;;;;;;5.53;3.55;;;;;;;;;;5002675;28;25169;-76
2023/08/17 10:22:47;;;;;;;12.82;4.38;;;;;;;;;;4999121;28;25073;-77
2023/08/17 10:25:13;;;;;;;6.45;3.33;;;;;;;;;;5001850;28;25068;-74
2023/08/17 10:27:41;;;;;;;5.65;3.40;;;;;;;;;;5022556;28;25127;-74
2023/08/17 10:30:08;;;;;;;6.40;3.03;;;;;;;;;;5022489;28;25068;-74
2023/08/17 10:32:34;;;;;;;9.57;3.80;;;;;;;;;;5025037;28;25059;-75
2023/08/17 10:35:01;;;;;;;6.88;3.00;;;;;;;;;;5009938;28;25051;-76
2023/08/17 10:37:27;;;;;;;3.40;2.90;;;;;;;;;;5017269;28;25075;-74
2023/08/17 10:39:53;;;;;;;9.60;3.47;;;;;;;;;;5020924;28;25091;-75
2023/08/17 10:42:32;;;;;;;7.32;3.50;;;;;;;;;;5017426;28;25131;-74
2023/08/17 10:45:01;;;;;;;7.15;3.35;;;;;;;;;;5022990;28;25069;-75
2023/08/17 10:47:38;;;;;;;9.70;3.67;;;;;;;;;;5012655;28;25053;-75
2023/08/17 10:50:20;;;;;;;9.02;4.00;;;;;;;;;;5004241;28;25097;-74
2023/08/17 10:52:48;;;;;;;10.75;4.43;;;;;;;;;;5002509;28;25081;-75
2023/08/17 10:55:14;;;;;;;6.47;3.95;;;;;;;;;;4999363;28;25064;-75
2023/08/17 10:57:44;;;;;;;8.90;4.45;;;;;;;;;;5014468;28;25065;-76
2023/08/17 11:00:16;;;;;;;10.60;4.85;;;;;;;;;;5013447;28;25065;-75
2023/08/17 11:02:46;;;;;;;9.05;4.53;;;;;;;;;;5005793;28;25091;-75
2023/08/17 11:05:12;;;;;;;10.10;4.63;;;;;;;;;;5014148;28;25068;-76
2023/08/17 11:07:42;;;;;;;9.73;5.38;;;;;;;;;;5013306;28;25071;-75
2023/08/17 11:10:11;;;;;;;12.50;4.40;;;;;;;;;;5011546;28;25067;-77
2023/08/17 11:12:37;;;;;;;12.77;4.65;;;;;;;;;;5001316;28;25122;-74
2023/08/17 11:15:03;;;;;;;19.65;6.57;;;;;;;;;;5017226;28;25096;-73
2023/08/17 11:17:30;;;;;;;11.48;5.88;;;;;;;;;;5020809;28;25089;-77
2023/08/17 11:19:56;;;;;;;15.80;7.45;;;;;;;;;;5013046;28;25101;-75
2023/08/17 11:22:22;;;;;;;10.82;6.38;;;;;;;;;;5005789;28;25058;-75
2023/08/17 11:24:48;;;;;;;14.88;6.55;;;;;;;;;;5024916;28;25058;-76
2023/08/17 11:27:14;;;;;;;12.98;6.60;;;;;;;;;;5014131;28;25073;-74
2023/08/17 11:29:41;;;;;;;8.90;5.85;;;;;;;;;;5009530;28;25044;-75
2023/08/17 11:32:09;;;;;;;17.38;6.53;;;;;;;;;;5012830;28;25138;-74
2023/08/17 11:34:36;;;;;;;9.07;5.18;;;;;;;;;;5012824;28;25088;-76
2023/08/17 11:37:02;;;;;;;12.88;5.47;;;;;;;;;;5016648;28;25060;-75
2023/08/17 11:39:28;;;;;;;10.48;5.15;;;;;;;;;;5009055;28;25064;-74
2023/08/17 11:41:54;;;;;;;11.18;5.57;;;;;;;;;;5014899;28;25218;-75
2023/08/17 11:44:21;;;;;;;7.65;4.75;;;;;;;;;;5006180;28;25101;-74
2023/08/17 11:46:47;;;;;;;8.13;4.80;;;;;;;;;;5004440;28;25096;-75
2023/08/17 11:49:13;;;;;;;9.63;4.65;;;;;;;;;;5024244;28;25053;-75
2023/08/17 11:51:40;;;;;;;12.07;4.75;;;;;;;;;;5017461;28;25065;-75
2023/08/17 11:54:07;;;;;;;12.52;5.15;;;;;;;;;;5006515;28;25062;-76
2023/08/17 11:56:33;;;;;;;11.23;4.13;;;;;;;;;;5013242;28;25131;-75
2023/08/17 11:58:59;;;;;;;10.93;4.32;;;;;;;;;;5019501;28;25119;-76
2023/08/17 12:01:25;;;;;;;6.07;3.65;;;;;;;;;;5024164;28;25069;-75
2023/08/17 12:03:51;;;;;;;9.50;4.20;;;;;;;;;;5017699;28;25060;-78
2023/08/17 12:06:17;;;;;;;11.63;5.20;;;;;;;;;;5027409;28;25082;-73
2023/08/17 12:08:44;;;;;;;6.72;3.50;;;;;;;;;;5010987;28;25080;-74
2023/08/17 12:11:10;;;;;;;9.80;4.32;;;;;;;;;;5007838;28;25101;-74
2023/08/17 12:13:36;;;;;;;7.25;3.58;;;;;;;;;;5014628;28;25095;-74
2023/08/17 12:16:03;;;;;;;8.35;4.28;;;;;;;;;;5027207;28;25097;-74
2023/08/17 12:18:29;;;;;;;6.25;3.60;;;;;;;;;;5007882;28;25064;-73
2023/08/17 12:20:55;;;;;;;8.50;3.85;;;;;;;;;;5010993;28;25060;-77
2023/08/17 12:23:21;;;;;;;10.90;4.43;;;;;;;;;;5015824;28;25069;-73
2023/08/17 12:25:52;;;;;;;8.85;4.25;;;;;;;;;;5016803;28;25175;-75
2023/08/17 12:28:18;;;;;;;7.18;3.65;;;;;;;;;;5003455;28;25134;-74
2023/08/17 12:30:44;;;;;;;7.72;4.03;;;;;;;;;;5020582;28;25057;-74
2023/08/17 12:33:10;;;;;;;7.88;3.83;;;;;;;;;;5010913;28;25070;-75
2023/08/17 12:35:36;;;;;;;10.02;4.13;;;;;;;;;;5020182;28;25059;-75
2023/08/17 12:38:02;;;;;;;7.35;4.07;;;;;;;;;;5007699;28;25100;-75
2023/08/17 12:40:28;;;;;;;15.02;4.57;;;;;;;;;;5004352;28;25072;-74
2023/08/17 12:42:54;;;;;;;8.98;3.83;;;;;;;;;;5014574;28;25083;-76
2023/08/17 12:45:21;;;;;;;7.20;3.83;;;;;;;;;;5006063;28;25103;-75
2023/08/17 12:47:47;;;;;;;9.30;4.20;;;;;;;;;;5009246;28;25147;-76
2023/08/17 12:50:13;;;;;;;7.45;4.00;;;;;;;;;;5015529;28;25067;-75
2023/08/17 12:52:39;;;;;;;9.13;3.78;;;;;;;;;;5001182;28;25072;-74
2023/08/17 12:55:05;;;;;;;10.07;4.57;;;;;;;;;;5008418;28;25074;-76
2023/08/17 12:57:31;;;;;;;10.55;4.50;;;;;;;;;;5025295;28;25120;-74
2023/08/17 12:59:57;;;;;;;5.70;3.50;;;;;;;;;;5005773;28;25061;-76
2023/08/17 13:02:23;;;;;;;8.77;3.60;;;;;;;;;;5010607;28;25147;-74
2023/08/17 13:04:49;;;;;;;10.50;4.32;;;;;;;;;;5002792;28;25070;-74
2023/08/17 13:07:16;;;;;;;10.20;4.63;;;;;;;;;;5007122;28;25060;-74
2023/08/17 13:09:42;;;;;;;11.30;4.18;;;;;;;;;;5008737;28;25143;-74
2023/08/17 13:12:08;;;;;;;11.10;4.53;;;;;;;;;;5015984;28;25051;-76
2023/08/17 13:14:34;;;;;;;9.98;4.05;;;;;;;;;;5020174;28;25124;-75
2023/08/17 13:17:00;;;;;;;11.23;4.30;;;;;;;;;;5015570;28;25088;-74
2023/08/17 13:19:26;;;;;;;9.02;5.40;;;;;;;;;;5024181;28;25049;-76
2023/08/17 13:21:52;;;;;;;9.45;4.75;;;;;;;;;;5009677;28;25052;-76
2023/08/17 13:24:18;;;;;;;7.95;4.28;;;;;;;;;;5004733;28;25058;-76
2023/08/17 13:26:44;;;;;;;11.07;4.53;;;;;;;;;;5008950;28;25083;-75
2023/08/17 13:29:10;;;;;;;9.27;4.32;;;;;;;;;;5019180;28;25079;-74
2023/08/17 13:31:36;;;;;;;8.18;4.22;;;;;;;;;;5032399;28;25070;-75
2023/08/17 13:34:02;;;;;;;8.70;4.30;;;;;;;;;;5005361;28;25076;-74
2023/08/17 13:36:28;;;;;;;10.80;3.78;;;;;;;;;;5002862;28;25076;-74
2023/08/17 13:38:54;;;;;;;14.15;5.15;;;;;;;;;;5012907;28;25087;-73
2023/08/17 13:41:20;;;;;;;11.20;4.43;;;;;;;;;;5012957;28;25070;-75
2023/08/17 13:43:46;;;;;;;14.40;4.40;;;;;;;;;;5010814;28;25057;-75
2023/08/17 13:46:12;;;;;;;10.93;5.30;;;;;;;;;;5011899;28;25063;-74
2023/08/17 13:48:39;;;;;;;9.30;5.20;;;;;;;;;;5014732;28;25061;-75
2023/08/17 13:51:05;;;;;;;11.77;5.05;;;;;;;;;;5014982;28;25077;-73
2023/08/17 13:53:31;;;;;;;15.13;6.03;;;;;;;;;;5014122;28;25099;-74
2023/08/17 13:55:57;;;;;;;17.75;5.40;;;;;;;;;;5014746;28;25076;-73
2023/08/17 13:58:23;;;;;;;11.38;5.45;;;;;;;;;;5025565;28;25069;-75
2023/08/17 14:00:49;;;;;;;9.77;5.28;;;;;;;;;;5009601;28;25064;-75
2023/08/17 14:03:14;;;;;;;7.82;4.50;;;;;;;;;;5012613;28;25097;-75
2023/08/17 14:05:40;;;;;;;10.20;5.60;;;;;;;;;;5011617;28;25060;-76
2023/08/17 14:08:07;;;;;;;8.85;4.22;;;;;;;;;;5017274;28;25114;-74
2023/08/17 14:10:35;;;;;;;11.55;5.40;;;;;;;;;;5012414;28;25066;-75
2023/08/17 14:13:01;;;;;;;12.55;4.90;;;;;;;;;;5020682;28;25061;-75
2023/08/17 14:15:28;;;;;;;9.98;5.32;;;;;;;;;;5028113;28;25189;-76
2023/08/17 14:17:54;;;;;;;8.20;4.97;;;;;;;;;;5020669;28;25065;-76
2023/08/17 14:20:20;;;;;;;10.30;5.35;;;;;;;;;;5013322;28;25043;-75
2023/08/17 14:22:46;;;;;;;6.90;4.63;;;;;;;;;;5005151;28;25099;-76
2023/08/17 14:25:12;;;;;;;11.63;5.05;;;;;;;;;;5010631;28;25077;-75
2023/08/17 14:27:38;;;;;;;7.90;4.80;;;;;;;;;;5018535;28;25055;-75
2023/08/17 14:30:04;;;;;;;9.13;4.90;;;;;;;;;;5006989;28;25083;-75
2023/08/17 14:32:30;;;;;;;12.65;5.00;;;;;;;;;;5007212;28;25118;-77
2023/08/17 14:34:56;;;;;;;9.35;4.97;;;;;;;;;;5003160;28;25142;-76
2023/08/17 14:37:22;;;;;;;6.90;5.07;;;;;;;;;;5012170;28;25092;-75